Time;durP1;ratioP1;P1;durP2;ratioP2;P2;SDS_P1;SDS_P2;PMS_P1;PMS_P2;Temp;Humidity;BMP_temperature;BMP_pressure;BME280_temperature;BME280_humidity;BME280_pressure;Samples;Min_cycle;Max_cycle;Signal;HPM_P1;HPM_P2
2021/12/19 00:02:25;;;;;;;3.43;2.10;;;;;;;0.77;85.96;100430.84;31324271;28;20056;-77
2021/12/19 00:17:27;;;;;;;2.37;1.20;;;;;;;0.73;83.45;100421.19;31300211;28;20045;-77
2021/12/19 00:32:29;;;;;;;1.73;1.20;;;;;;;0.74;77.57;100386.09;31314384;28;20048;-78
2021/12/19 00:47:31;;;;;;;1.63;1.47;;;;;;;0.67;80.85;100359.22;31312294;28;20057;-77
2021/12/19 01:02:35;;;;;;;2.60;1.77;;;;;;;0.43;87.45;100340.69;31293412;28;20850;-77
2021/12/19 01:17:37;;;;;;;8.27;2.87;;;;;;;0.50;90.81;100306.13;31304393;28;20052;-76
2021/12/19 01:32:40;;;;;;;10.03;5.57;;;;;;;0.38;91.52;100287.53;31289811;28;20497;-77
2021/12/19 01:47:42;;;;;;;13.13;4.53;;;;;;;0.45;91.30;100283.16;31304656;28;20507;-76
2021/12/19 02:02:44;;;;;;;7.17;2.73;;;;;;;0.40;88.48;100269.28;31293766;28;20132;-78
2021/12/19 02:17:48;;;;;;;6.30;2.83;;;;;;;0.31;87.07;100234.72;31290309;28;20072;-77
2021/12/19 02:32:50;;;;;;;5.90;2.67;;;;;;;0.25;87.22;100209.41;31290147;28;20115;-77
2021/12/19 03:03:12;;;;;;;9.50;5.77;;;;;;;0.15;88.81;100194.69;31294637;28;20049;-77
2021/12/19 03:18:16;;;;;;;12.40;7.20;;;;;;;0.09;88.53;100185.38;31301993;28;20049;-76
2021/12/19 03:33:18;;;;;;;17.13;6.50;;;;;;;0.08;87.24;100146.47;31291502;28;20047;-78
2021/12/19 03:48:20;;;;;;;19.20;8.70;;;;;;;0.08;86.89;100130.44;31295997;28;20051;-77
2021/12/19 04:03:23;;;;;;;17.30;6.43;;;;;;;0.09;86.84;100104.53;31303701;28;20057;-77
2021/12/19 04:18:25;;;;;;;9.37;4.47;;;;;;;0.10;86.69;100077.50;31283646;28;20049;-76
2021/12/19 04:33:29;;;;;;;7.93;3.50;;;;;;;0.14;88.12;100075.69;31296784;28;20053;-78
2021/12/19 05:04:07;;;;;;;3.47;2.47;;;;;;;0.06;87.26;100036.59;31297966;28;20064;-77
2021/12/19 05:19:43;;;;;;;4.03;2.47;;;;;;;0.05;87.50;100034.28;31298775;28;20119;-77
2021/12/19 05:34:31;;;;;;;3.57;2.87;;;;;;;0.07;88.00;100003.44;31301979;28;20055;-78
2021/12/19 05:49:34;;;;;;;6.80;3.50;;;;;;;0.09;87.55;99993.19;31311913;28;20422;-79
2021/12/19 06:04:37;;;;;;;10.00;3.40;;;;;;;0.00;88.10;99960.63;31285324;28;20718;-78
2021/12/19 06:19:39;;;;;;;7.47;3.97;;;;;;;0.05;88.04;99927.50;31298736;28;20044;-77
2021/12/19 06:34:41;;;;;;;12.67;5.33;;;;;;;0.17;88.01;99914.81;31291249;28;20044;-79
2021/12/19 06:49:43;;;;;;;10.77;5.07;;;;;;;0.17;87.03;99898.78;31326402;28;20499;-78
2021/12/19 07:04:45;;;;;;;8.93;5.13;;;;;;;0.31;87.35;99844.88;31281791;28;20067;-78
2021/12/19 07:19:47;;;;;;;13.67;6.13;;;;;;;0.30;87.58;99843.31;31277004;28;20056;-78
2021/12/19 07:34:50;;;;;;;6.53;3.83;;;;;;;0.55;84.28;99801.00;31276992;28;20049;-77
2021/12/19 07:49:52;;;;;;;5.10;3.20;;;;;;;0.92;82.99;99772.56;31294011;28;20045;-78
2021/12/19 08:04:54;;;;;;;5.97;2.60;;;;;;;1.01;81.66;99727.63;31299556;28;20057;-77
2021/12/19 08:19:56;;;;;;;2.53;2.20;;;;;;;1.22;82.52;99715.63;31303333;28;20081;-78
2021/12/19 08:34:58;;;;;;;6.53;3.30;;;;;;;1.28;84.03;99698.16;31299710;28;20086;-78
2021/12/19 08:50:00;;;;;;;5.43;3.00;;;;;;;1.39;85.01;99634.84;31296232;28;20047;-78
2021/12/19 09:05:02;;;;;;;4.60;2.77;;;;;;;1.35;83.37;99607.31;31295206;28;20057;-78
2021/12/19 09:20:05;;;;;;;4.17;2.20;;;;;;;1.84;82.52;99548.06;31307984;28;20077;-78
2021/12/19 09:35:08;;;;;;;18.17;2.77;;;;;;;1.70;82.46;99540.69;31344912;28;20497;-79
2021/12/19 09:50:10;;;;;;;5.70;2.57;;;;;;;1.87;82.95;99493.03;31305886;28;20081;-78
2021/12/19 10:05:24;;;;;;;5.70;2.10;;;;;;;1.96;83.18;99458.66;31334394;28;20399;-79
2021/12/19 10:20:43;;;;;;;3.70;2.80;;;;;;;2.03;82.95;99415.84;31324667;28;20144;-79
2021/12/19 10:35:51;;;;;;;3.67;2.23;;;;;;;1.84;83.64;99413.50;31316220;28;20080;-79
2021/12/19 10:51:06;;;;;;;6.47;3.77;;;;;;;2.02;84.89;99374.16;31347282;28;20132;-78
2021/12/19 11:06:25;;;;;;;10.07;3.17;;;;;;;1.97;84.80;99310.28;31332480;28;20091;-78
2021/12/19 11:21:33;;;;;;;5.20;3.23;;;;;;;1.90;85.69;99251.38;31277469;28;20049;-76
2021/12/19 11:36:40;;;;;;;5.97;3.70;;;;;;;1.86;87.81;99221.19;31316679;28;20518;-77
2021/12/19 11:51:42;;;;;;;8.20;4.03;;;;;;;1.90;89.12;99203.97;31330509;28;20056;-77
2021/12/19 12:06:56;;;;;;;6.43;4.03;;;;;;;1.86;90.89;99181.03;31307164;28;20494;-76
2021/12/19 12:22:27;;;;;;;6.23;3.83;;;;;;;2.02;89.83;99197.47;31318207;28;20045;-76
2021/12/19 12:37:29;;;;;;;7.27;3.30;;;;;;;2.10;91.10;99153.50;31327607;28;20164;-77
2021/12/19 12:52:39;;;;;;;8.90;4.70;;;;;;;2.11;91.19;99130.94;31312349;28;20075;-75
2021/12/19 13:07:41;;;;;;;10.10;5.07;;;;;;;2.24;90.53;99105.28;31345382;28;20132;-77
2021/12/19 13:22:53;;;;;;;12.33;6.13;;;;;;;2.30;90.82;99087.66;31350390;28;20433;-78
2021/12/19 13:38:24;;;;;;;11.13;4.73;;;;;;;2.43;92.87;99068.50;31315549;28;20060;-77
2021/12/19 13:53:29;;;;;;;13.00;5.20;;;;;;;2.44;92.75;99013.75;31354161;28;20053;-77
2021/12/19 14:08:34;;;;;;;7.17;4.40;;;;;;;2.43;94.04;98998.84;31292600;28;20049;-77
2021/12/19 14:23:40;;;;;;;8.10;3.83;;;;;;;2.46;95.20;98980.09;31286926;28;20048;-76
2021/12/19 14:38:42;;;;;;;6.97;3.57;;;;;;;2.32;100.00;98975.56;31278980;28;20057;-76
2021/12/19 14:53:45;;;;;;;8.27;4.03;;;;;;;2.13;100.00;98991.31;31265950;28;20049;-78
2021/12/19 15:08:48;;;;;;;15.13;5.27;;;;;;;2.15;100.00;98922.84;31271153;28;20049;-77
2021/12/19 15:23:50;;;;;;;10.20;4.47;;;;;;;2.29;100.00;98904.03;31273616;28;20041;-75
2021/12/19 15:38:52;;;;;;;13.43;4.93;;;;;;;2.40;100.00;98915.44;31284700;28;20056;-79
2021/12/19 15:53:54;;;;;;;9.80;4.63;;;;;;;2.29;100.00;98896.00;31274527;28;20057;-76
2021/12/19 16:08:57;;;;;;;10.77;6.00;;;;;;;2.13;100.00;98895.69;31261912;28;20053;-74
2021/12/19 16:24:00;;;;;;;14.10;6.57;;;;;;;2.11;100.00;98865.91;31273565;28;20053;-74
2021/12/19 16:39:07;;;;;;;7.20;5.07;;;;;;;2.05;100.00;98846.78;31279228;28;20136;-77
2021/12/19 16:54:10;;;;;;;9.73;5.37;;;;;;;2.12;100.00;98816.56;31287284;28;20168;-76
2021/12/19 17:09:12;;;;;;;9.30;4.70;;;;;;;2.11;100.00;98808.91;31295283;28;20801;-75
2021/12/19 17:24:15;;;;;;;12.73;5.43;;;;;;;2.13;100.00;98796.63;31306511;28;20045;-78
2021/12/19 17:39:25;;;;;;;12.43;6.60;;;;;;;2.18;100.00;98771.38;31318654;28;20064;-79
2021/12/19 17:54:27;;;;;;;10.07;5.43;;;;;;;2.17;100.00;98762.56;31308614;28;20050;-77
2021/12/19 18:09:28;;;;;;;11.07;5.97;;;;;;;2.20;100.00;98755.66;31340863;28;20162;-78
2021/12/19 18:24:31;;;;;;;11.70;6.40;;;;;;;2.23;100.00;98750.28;31303137;28;20067;-78
2021/12/19 18:39:39;;;;;;;11.40;5.83;;;;;;;2.21;100.00;98727.72;31334156;28;20413;-82
2021/12/19 19:09:47;;;;;;;11.10;6.50;;;;;;;2.34;100.00;98702.78;31322195;28;20061;-79
2021/12/19 19:24:49;;;;;;;14.73;7.37;;;;;;;2.44;100.00;98705.72;31350851;28;20446;-82
2021/12/19 19:55:00;;;;;;;15.13;8.70;;;;;;;2.75;100.00;98693.94;31355240;28;20131;-79
2021/12/19 20:10:09;;;;;;;17.27;8.60;;;;;;;2.85;100.00;98682.34;31332518;28;20061;-81
2021/12/19 20:25:13;;;;;;;16.63;7.73;;;;;;;2.92;100.00;98692.22;31326492;28;20046;-78
2021/12/19 20:40:15;;;;;;;18.33;9.30;;;;;;;3.03;100.00;98666.81;31319316;28;20051;-76
2021/12/19 20:55:17;;;;;;;23.70;8.77;;;;;;;3.05;100.00;98680.59;31346815;28;20049;-78
2021/12/19 21:10:20;;;;;;;16.80;7.93;;;;;;;3.01;100.00;98679.88;31309240;28;20049;-77
2021/12/19 21:25:23;;;;;;;18.60;8.57;;;;;;;3.05;100.00;98659.13;31313112;28;20617;-79
2021/12/19 21:40:29;;;;;;;19.10;9.17;;;;;;;3.14;100.00;98649.81;31323022;28;20074;-79
2021/12/19 21:55:31;;;;;;;17.70;8.17;;;;;;;3.22;100.00;98643.22;31345325;28;20123;-79
2021/12/19 22:10:33;;;;;;;18.50;8.50;;;;;;;3.27;100.00;98622.06;31342934;28;20077;-79
2021/12/19 22:25:35;;;;;;;15.90;7.90;;;;;;;3.30;100.00;98623.19;31290962;28;20049;-78
2021/12/19 22:40:37;;;;;;;19.67;8.77;;;;;;;3.33;100.00;98617.00;31278454;28;20052;-77
2021/12/19 22:55:40;;;;;;;21.83;8.77;;;;;;;3.35;100.00;98593.22;31279201;28;20050;-78
2021/12/19 23:11:01;;;;;;;17.50;8.80;;;;;;;3.37;100.00;98594.31;31278079;28;20045;-76
2021/12/19 23:26:02;;;;;;;16.90;7.87;;;;;;;3.40;100.00;98573.97;31289647;28;20075;-77
2021/12/19 23:56:11;;;;;;;15.63;7.93;;;;;;;3.49;100.00;98601.06;31277454;28;20478;-79
